createdAt,value
2022-09-11T00:00:44.918Z,44.53
2022-09-11T00:03:19.076Z,44.47
2022-09-11T00:05:49.214Z,44.95
2022-09-11T00:08:20.597Z,45.05
2022-09-11T00:10:48.701Z,43.10
2022-09-11T00:13:24.376Z,41.53
2022-09-11T00:15:52.834Z,49.55
2022-09-11T00:18:39.913Z,44.87
2022-09-11T00:21:10.094Z,44.22
2022-09-11T00:23:40.357Z,44.03
2022-09-11T00:26:11.495Z,40.28
2022-09-11T00:28:42.690Z,39.83
2022-09-11T00:31:15.577Z,41.05
2022-09-11T00:33:43.513Z,41.20
2022-09-11T00:36:15.818Z,37.17
2022-09-11T00:38:45.891Z,39.58
2022-09-11T00:41:21.790Z,38.00
2022-09-11T00:44:00.232Z,36.63
2022-09-11T00:46:33.860Z,40.60
2022-09-11T00:49:03.188Z,36.25
2022-09-11T00:51:33.853Z,40.10
2022-09-11T00:54:04.096Z,38.85
2022-09-11T00:56:32.511Z,37.53
2022-09-11T00:59:01.235Z,39.75
2022-09-11T01:01:28.682Z,34.75
2022-09-11T01:03:56.280Z,33.65
2022-09-11T01:06:24.780Z,34.30
2022-09-11T01:08:59.280Z,33.40
2022-09-11T01:11:33.024Z,34.10
2022-09-11T01:14:01.198Z,38.60
2022-09-11T01:16:30.813Z,38.38
2022-09-11T01:19:17.564Z,35.50
2022-09-11T01:21:46.408Z,34.58
2022-09-11T01:24:26.351Z,31.80
2022-09-11T01:27:15.270Z,34.65
2022-09-11T01:29:42.838Z,32.35
2022-09-11T01:32:12.151Z,39.45
2022-09-11T01:34:52.308Z,34.50
2022-09-11T01:37:26.161Z,38.17
2022-09-11T01:40:01.364Z,38.95
2022-09-11T01:42:31.553Z,40.78
2022-09-11T01:44:59.536Z,42.20
2022-09-11T01:47:28.250Z,36.53
2022-09-11T01:50:04.586Z,41.00
2022-09-11T01:52:35.298Z,43.17
2022-09-11T01:55:05.701Z,41.97
2022-09-11T01:57:37.769Z,41.22
2022-09-11T02:00:07.838Z,43.33
2022-09-11T02:02:53.231Z,43.22
2022-09-11T02:05:23.361Z,43.80
2022-09-11T02:07:54.603Z,41.17
2022-09-11T02:10:32.769Z,43.10
2022-09-11T02:13:19.291Z,44.08
2022-09-11T02:15:52.199Z,44.08
2022-09-11T02:18:24.862Z,45.97
2022-09-11T02:20:53.979Z,42.65
2022-09-11T02:23:21.888Z,45.92
2022-09-11T02:25:53.017Z,42.15
2022-09-11T02:28:25.474Z,44.88
2022-09-11T02:30:54.881Z,46.78
2022-09-11T02:33:29.390Z,42.08
2022-09-11T02:36:05.169Z,48.15
2022-09-11T02:39:06.481Z,42.75
2022-09-11T02:41:46.594Z,46.22
2022-09-11T02:44:35.583Z,42.60
2022-09-11T02:47:22.169Z,45.42
2022-09-11T02:49:50.684Z,44.70
2022-09-11T02:52:23.160Z,46.33
2022-09-11T02:54:50.748Z,40.28
2022-09-11T02:57:25.102Z,42.60
2022-09-11T03:00:01.686Z,39.92
2022-09-11T03:02:32.029Z,44.25
2022-09-11T03:05:00.345Z,42.75
2022-09-11T03:07:27.855Z,40.95
2022-09-11T03:09:55.493Z,39.65
2022-09-11T03:12:25.495Z,44.75
2022-09-11T03:14:53.049Z,43.28
2022-09-11T03:17:22.016Z,44.40
2022-09-11T03:19:49.978Z,43.47
2022-09-11T03:22:26.215Z,40.10
2022-09-11T03:24:59.487Z,42.95
2022-09-11T03:27:32.127Z,37.22
2022-09-11T03:30:06.663Z,39.42
2022-09-11T03:32:34.227Z,37.97
2022-09-11T03:35:03.280Z,35.95
2022-09-11T03:37:32.408Z,37.15
2022-09-11T03:40:01.726Z,35.25
2022-09-11T03:42:33.572Z,35.67
2022-09-11T03:45:02.829Z,35.13
2022-09-11T03:47:39.555Z,34.25
2022-09-11T03:50:16.656Z,35.10
2022-09-11T03:52:44.317Z,34.28
2022-09-11T03:55:12.669Z,34.30
2022-09-11T03:57:40.812Z,35.50
2022-09-11T04:00:09.164Z,36.15
2022-09-11T04:02:52.288Z,36.30
2022-09-11T04:05:41.142Z,38.95
2022-09-11T04:08:21.875Z,38.28
2022-09-11T04:10:57.210Z,37.38
2022-09-11T04:13:31.442Z,38.08
2022-09-11T04:16:03.803Z,34.67
2022-09-11T04:18:37.886Z,35.03
2022-09-11T04:21:09.337Z,39.00
2022-09-11T04:23:40.152Z,38.63
2022-09-11T04:26:21.404Z,39.97
2022-09-11T04:28:53.161Z,39.35
2022-09-11T04:31:21.749Z,37.60
2022-09-11T04:33:57.521Z,41.30
2022-09-11T04:36:38.948Z,40.05
2022-09-11T04:39:14.835Z,41.55
2022-09-11T04:41:44.727Z,36.17
2022-09-11T04:44:20.932Z,40.05
2022-09-11T04:46:55.621Z,38.30
2022-09-11T04:49:27.674Z,42.85
2022-09-11T04:52:06.149Z,36.38
2022-09-11T04:54:37.763Z,37.13
2022-09-11T04:57:09.609Z,35.60
2022-09-11T04:59:42.020Z,31.75
2022-09-11T05:02:15.168Z,31.27
2022-09-11T05:04:47.047Z,26.85
2022-09-11T05:07:14.920Z,28.02
2022-09-11T05:09:47.463Z,27.70
2022-09-11T05:12:22.126Z,27.58
2022-09-11T05:14:52.243Z,28.08
2022-09-11T05:17:20.713Z,30.10
2022-09-11T05:19:49.345Z,29.80
2022-09-11T05:22:19.123Z,28.67
2022-09-11T05:24:52.639Z,28.42
2022-09-11T05:27:19.899Z,26.50
2022-09-11T05:29:47.376Z,26.58
2022-09-11T05:32:15.878Z,26.95
2022-09-11T05:34:44.593Z,29.42
2022-09-11T05:37:15.499Z,26.08
2022-09-11T05:39:48.278Z,23.08
2022-09-11T05:42:16.841Z,25.08
2022-09-11T05:44:49.129Z,25.63
2022-09-11T05:47:16.940Z,22.25
2022-09-11T05:49:47.674Z,26.38
2022-09-11T05:52:17.604Z,27.23
2022-09-11T05:54:46.243Z,28.92
2022-09-11T05:57:15.053Z,28.75
2022-09-11T05:59:43.020Z,29.48
2022-09-11T06:02:14.943Z,30.63
2022-09-11T06:04:48.086Z,32.35
2022-09-11T06:07:15.539Z,30.77
2022-09-11T06:09:47.091Z,36.80
2022-09-11T06:12:17.327Z,41.40
2022-09-11T06:14:44.923Z,48.70
2022-09-11T06:17:13.478Z,45.05
2022-09-11T06:19:41.172Z,56.10
2022-09-11T06:22:11.252Z,55.15
2022-09-11T06:24:42.294Z,63.33
2022-09-11T06:27:10.092Z,62.35
2022-09-11T06:29:40.717Z,59.90
2022-09-11T06:32:08.263Z,57.55
2022-09-11T06:34:38.500Z,54.33
2022-09-11T06:37:09.664Z,55.42
2022-09-11T06:39:37.155Z,59.95
2022-09-11T06:42:07.274Z,58.28
2022-09-11T06:44:36.865Z,56.72
2022-09-11T06:47:06.633Z,54.05
2022-09-11T06:49:41.456Z,57.78
2022-09-11T06:52:35.426Z,62.28
2022-09-11T06:55:16.195Z,52.30
2022-09-11T06:57:56.162Z,44.38
2022-09-11T07:00:31.794Z,36.83
2022-09-11T07:02:59.208Z,40.17
2022-09-11T07:05:27.569Z,45.72
2022-09-11T07:07:56.692Z,42.60
2022-09-11T07:10:26.232Z,48.63
2022-09-11T07:13:01.584Z,60.28
2022-09-11T07:15:32.366Z,51.80
2022-09-11T07:18:02.358Z,52.65
2022-09-11T07:20:31.447Z,52.85
2022-09-11T07:22:59.419Z,47.90
2022-09-11T07:25:29.224Z,46.85
2022-09-11T07:27:58.829Z,43.15
2022-09-11T07:30:31.637Z,36.85
2022-09-11T07:32:59.679Z,38.22
2022-09-11T07:35:27.214Z,39.72
2022-09-11T07:37:56.295Z,39.53
2022-09-11T07:40:27.268Z,37.17
2022-09-11T07:42:57.954Z,38.70
2022-09-11T07:45:28.304Z,35.20
2022-09-11T07:47:56.315Z,38.50
2022-09-11T07:50:24.538Z,38.28
2022-09-11T07:53:07.399Z,31.45
2022-09-11T07:55:36.245Z,28.60
2022-09-11T07:58:04.265Z,27.17
2022-09-11T08:00:35.232Z,29.10
2022-09-11T08:03:15.011Z,32.47
2022-09-11T08:05:42.678Z,25.67
2022-09-11T08:08:16.208Z,21.42
2022-09-11T08:10:47.858Z,21.25
2022-09-11T08:13:17.443Z,21.02
2022-09-11T08:15:48.176Z,17.60
2022-09-11T08:18:16.089Z,15.48
2022-09-11T08:20:43.959Z,13.60
2022-09-11T08:23:12.017Z,14.98
2022-09-11T08:25:39.695Z,13.18
2022-09-11T08:28:09.077Z,11.63
2022-09-11T08:30:39.413Z,13.55
2022-09-11T08:33:10.453Z,8.60
2022-09-11T08:35:38.526Z,7.90
2022-09-11T08:38:07.380Z,10.30
2022-09-11T08:40:39.140Z,8.52
2022-09-11T08:43:23.307Z,10.73
2022-09-11T08:45:55.853Z,9.48
2022-09-11T08:48:31.849Z,8.00
2022-09-11T08:50:59.875Z,8.93
2022-09-11T08:53:29.038Z,6.68
2022-09-11T08:58:36.812Z,7.88
2022-09-11T09:01:19.334Z,9.13
2022-09-11T09:03:53.804Z,7.05
2022-09-11T09:06:28.638Z,8.27
2022-09-11T09:08:57.177Z,7.97
2022-09-11T09:11:29.145Z,7.05
2022-09-11T09:14:11.757Z,6.53
2022-09-11T09:16:40.247Z,8.48
2022-09-11T09:19:14.239Z,7.13
2022-09-11T09:21:59.623Z,8.00
2022-09-11T09:24:31.093Z,6.90
2022-09-11T09:27:10.393Z,7.10
2022-09-11T09:29:51.860Z,8.57
2022-09-11T09:32:24.863Z,6.40
2022-09-11T09:34:53.861Z,8.68
2022-09-11T09:37:22.416Z,6.22
2022-09-11T09:39:54.941Z,7.50
2022-09-11T09:42:42.132Z,7.43
2022-09-11T09:45:26.706Z,7.32
2022-09-11T09:47:54.205Z,9.18
2022-09-11T09:50:23.864Z,11.82
2022-09-11T09:52:59.461Z,8.90
2022-09-11T09:55:38.938Z,9.55
2022-09-11T09:58:07.654Z,5.95
2022-09-11T10:00:39.057Z,6.53
2022-09-11T10:03:21.739Z,6.07
2022-09-11T10:05:50.581Z,6.38
2022-09-11T10:08:29.580Z,5.28
2022-09-11T10:11:00.568Z,5.72
2022-09-11T10:13:35.570Z,7.15
2022-09-11T10:16:04.291Z,5.45
2022-09-11T10:18:42.369Z,7.57
2022-09-11T10:21:13.086Z,6.18
2022-09-11T10:23:54.741Z,5.25
2022-09-11T10:26:34.586Z,5.05
2022-09-11T10:29:07.328Z,6.13
2022-09-11T10:31:41.590Z,6.20
2022-09-11T10:34:35.818Z,5.75
2022-09-11T10:37:17.906Z,5.93
2022-09-11T10:39:48.147Z,4.50
2022-09-11T10:42:27.920Z,6.22
2022-09-11T10:45:02.059Z,5.82
2022-09-11T10:47:33.527Z,7.57
2022-09-11T10:50:23.432Z,5.15
2022-09-11T10:53:00.132Z,6.43
2022-09-11T10:55:30.489Z,3.97
2022-09-11T10:58:06.721Z,6.90
2022-09-11T11:00:36.038Z,5.78
2022-09-11T11:03:11.016Z,5.63
2022-09-11T11:05:47.170Z,7.15
2022-09-11T11:08:34.818Z,5.20
2022-09-11T11:11:14.144Z,5.07
2022-09-11T11:14:00.488Z,4.15
2022-09-11T11:16:36.294Z,6.00
2022-09-11T11:19:06.776Z,5.03
2022-09-11T11:21:37.654Z,5.78
2022-09-11T11:24:25.694Z,4.95
2022-09-11T11:27:22.211Z,5.20
2022-09-11T11:30:08.111Z,8.93
2022-09-11T11:32:54.422Z,5.53
2022-09-11T11:35:39.296Z,5.05
2022-09-11T11:38:25.712Z,6.53
2022-09-11T11:41:13.720Z,5.05
2022-09-11T11:43:44.871Z,5.13
2022-09-11T11:46:29.478Z,5.43
2022-09-11T11:49:00.935Z,5.43
2022-09-11T11:51:29.254Z,8.05
2022-09-11T11:54:06.948Z,5.28
2022-09-11T11:56:42.883Z,5.25
2022-09-11T11:59:43.378Z,4.72
2022-09-11T12:02:34.888Z,4.43
2022-09-11T12:05:05.429Z,5.72
2022-09-11T12:07:37.379Z,4.82
2022-09-11T12:10:12.422Z,4.80
2022-09-11T12:13:04.180Z,5.32
2022-09-11T12:15:41.729Z,5.03
2022-09-11T12:18:17.142Z,4.80
2022-09-11T12:23:35.145Z,4.45
2022-09-11T12:26:10.035Z,6.53
2022-09-11T12:28:45.775Z,7.82
2022-09-11T12:31:17.349Z,8.70
2022-09-11T12:33:46.115Z,5.78
2022-09-11T12:36:41.328Z,5.05
2022-09-11T12:39:47.493Z,10.13
2022-09-11T12:42:24.310Z,7.30
2022-09-11T12:45:02.222Z,9.07
2022-09-11T12:47:47.785Z,5.82
2022-09-11T12:50:27.313Z,4.28
2022-09-11T12:53:04.259Z,5.43
2022-09-11T12:55:39.340Z,4.20
2022-09-11T12:58:26.695Z,5.05
2022-09-11T13:01:16.584Z,5.15
2022-09-11T13:04:09.731Z,4.15
2022-09-11T13:07:00.761Z,4.25
2022-09-11T13:09:30.551Z,7.00
2022-09-11T13:12:19.329Z,4.65
2022-09-11T13:14:50.817Z,6.00
2022-09-11T13:17:41.104Z,4.72
2022-09-11T13:20:23.982Z,5.43
2022-09-11T13:22:58.441Z,5.90
2022-09-11T13:25:31.480Z,4.55
2022-09-11T13:28:03.384Z,6.38
2022-09-11T13:30:32.867Z,5.78
2022-09-11T13:33:16.025Z,7.03
2022-09-11T13:35:49.963Z,6.78
2022-09-11T13:38:37.040Z,7.40
2022-09-11T13:41:21.572Z,6.20
2022-09-11T13:43:57.543Z,5.97
2022-09-11T13:46:35.111Z,5.43
2022-09-11T13:49:10.537Z,5.00
2022-09-11T13:51:42.316Z,4.82
2022-09-11T13:54:12.578Z,3.50
2022-09-11T13:57:02.660Z,5.68
2022-09-11T13:59:53.853Z,6.47
2022-09-11T14:02:28.646Z,6.28
2022-09-11T14:05:16.998Z,5.20
2022-09-11T14:08:04.819Z,5.63
2022-09-11T14:10:33.879Z,4.70
2022-09-11T14:13:07.029Z,5.22
2022-09-11T14:15:44.175Z,5.68
2022-09-11T14:18:21.659Z,4.65
2022-09-11T14:20:58.983Z,5.90
2022-09-11T14:23:29.569Z,4.53
2022-09-11T14:26:06.071Z,5.50
2022-09-11T14:28:44.963Z,6.38
2022-09-11T14:31:20.688Z,6.43
2022-09-11T14:33:51.056Z,6.28
2022-09-11T14:36:24.655Z,6.07
2022-09-11T14:38:54.509Z,6.15
2022-09-11T14:41:25.123Z,5.00
2022-09-11T14:43:59.547Z,4.93
2022-09-11T14:46:35.603Z,7.72
2022-09-11T14:49:11.866Z,5.50
2022-09-11T14:51:43.491Z,5.53
2022-09-11T14:54:16.785Z,7.00
2022-09-11T14:56:51.488Z,5.93
2022-09-11T14:59:25.389Z,7.05
2022-09-11T15:02:16.416Z,3.72
2022-09-11T15:04:52.787Z,5.75
2022-09-11T15:07:28.142Z,4.70
2022-09-11T15:10:02.723Z,5.07
2022-09-11T15:12:31.441Z,13.82
2022-09-11T15:15:04.647Z,13.88
2022-09-11T15:17:36.499Z,14.43
2022-09-11T15:20:10.714Z,21.58
2022-09-11T15:22:46.540Z,16.98
2022-09-11T15:25:19.158Z,23.10
2022-09-11T15:27:59.162Z,11.50
2022-09-11T15:30:27.871Z,7.95
2022-09-11T15:32:58.778Z,11.13
2022-09-11T15:35:39.455Z,7.72
2022-09-11T15:38:18.817Z,6.70
2022-09-11T15:41:01.932Z,7.38
2022-09-11T15:43:41.343Z,4.43
2022-09-11T15:47:59.508Z,4.88
2022-09-11T15:50:42.352Z,7.20
2022-09-11T15:53:23.489Z,6.13
2022-09-11T15:55:55.586Z,5.40
2022-09-11T16:04:15.602Z,6.03
2022-09-11T16:06:47.353Z,4.90
2022-09-11T16:09:27.223Z,7.95
2022-09-11T16:14:49.015Z,7.05
2022-09-11T16:17:33.823Z,17.08
2022-09-11T16:20:07.131Z,11.93
2022-09-11T16:22:47.029Z,10.02
2022-09-11T16:25:15.611Z,6.90
2022-09-11T16:27:43.794Z,11.98
2022-09-11T16:30:42.275Z,8.60
2022-09-11T16:33:08.632Z,7.80
2022-09-11T16:35:44.179Z,11.15
2022-09-11T16:38:21.053Z,5.60
2022-09-11T16:41:13.020Z,4.40
2022-09-11T16:44:23.534Z,4.97
2022-09-11T16:51:12.697Z,6.38
2022-09-11T16:54:20.280Z,5.47
2022-09-11T17:08:32.577Z,6.63
2022-09-11T17:11:14.431Z,4.72
2022-09-11T17:13:47.515Z,5.28
2022-09-11T17:16:17.072Z,9.23
2022-09-11T17:18:51.136Z,9.77
2022-09-11T17:21:21.284Z,8.07
2022-09-11T17:23:56.701Z,4.55
2022-09-11T17:26:42.082Z,5.78
2022-09-11T17:31:48.645Z,6.57
2022-09-11T17:34:18.222Z,6.30
2022-09-11T17:36:49.404Z,7.13
2022-09-11T17:39:16.963Z,5.30
2022-09-11T17:41:44.614Z,6.50
2022-09-11T17:44:14.718Z,6.55
2022-09-11T17:46:44.382Z,4.85
2022-09-11T17:49:24.053Z,4.88
2022-09-11T17:51:54.716Z,7.72
2022-09-11T17:54:22.490Z,5.70
2022-09-11T18:00:32.958Z,5.97
2022-09-11T18:06:34.774Z,7.53
2022-09-11T18:21:25.092Z,5.75
2022-09-11T18:23:59.678Z,4.28
2022-09-11T18:26:34.526Z,4.72
2022-09-11T18:29:22.689Z,5.68
2022-09-11T18:31:57.744Z,6.95
2022-09-11T18:34:29.248Z,5.10
2022-09-11T18:36:59.923Z,4.65
2022-09-11T18:39:29.280Z,5.47
2022-09-11T18:42:00.053Z,6.63
2022-09-11T18:44:37.522Z,5.07
2022-09-11T18:47:15.038Z,5.85
2022-09-11T18:52:32.288Z,6.85
2022-09-11T18:55:10.415Z,7.65
2022-09-11T18:57:52.272Z,6.30
2022-09-11T19:00:25.486Z,7.50
2022-09-11T19:02:57.321Z,6.22
2022-09-11T19:05:32.412Z,5.57
2022-09-11T19:08:01.779Z,6.75
2022-09-11T19:10:38.925Z,7.00
2022-09-11T19:13:10.834Z,5.30
2022-09-11T19:15:49.503Z,5.32
2022-09-11T19:18:21.597Z,4.90
2022-09-11T19:21:10.358Z,5.95
2022-09-11T19:23:43.114Z,4.68
2022-09-11T19:26:12.367Z,4.35
2022-09-11T19:28:54.001Z,6.40
2022-09-11T19:31:25.249Z,6.53
2022-09-11T19:33:57.602Z,6.45
2022-09-11T19:36:28.109Z,7.63
2022-09-11T19:39:02.724Z,7.07
2022-09-11T19:41:38.669Z,8.10
2022-09-11T19:44:07.705Z,5.82
2022-09-11T19:46:36.120Z,7.35
2022-09-11T19:49:17.648Z,6.38
2022-09-11T19:51:48.973Z,7.00
2022-09-11T19:54:16.813Z,6.70
2022-09-11T19:56:58.056Z,5.30
2022-09-11T19:59:34.611Z,7.18
2022-09-11T20:02:02.820Z,8.38
2022-09-11T20:04:32.503Z,9.52
2022-09-11T20:07:02.391Z,9.35
2022-09-11T20:09:31.732Z,7.30
2022-09-11T20:12:12.298Z,5.88
2022-09-11T20:14:51.143Z,8.25
2022-09-11T20:17:23.949Z,10.48
2022-09-11T20:19:54.386Z,8.73
2022-09-11T20:22:32.551Z,8.50
2022-09-11T20:25:00.626Z,7.22
2022-09-11T20:27:44.049Z,8.55
2022-09-11T20:30:29.935Z,10.27
2022-09-11T20:33:07.410Z,9.82
2022-09-11T20:35:37.168Z,10.43
2022-09-11T20:38:11.588Z,9.73
2022-09-11T20:40:47.469Z,8.50
2022-09-11T20:43:37.707Z,7.93
2022-09-11T20:46:22.691Z,10.45
2022-09-11T20:48:54.209Z,9.18
2022-09-11T20:51:23.399Z,10.27
2022-09-11T20:53:55.037Z,10.68
2022-09-11T20:56:30.755Z,9.57
2022-09-11T20:59:00.991Z,10.38
2022-09-11T21:01:41.098Z,10.68
2022-09-11T21:04:08.803Z,11.30
2022-09-11T21:06:42.499Z,12.23
2022-09-11T21:09:12.749Z,11.23
2022-09-11T21:11:48.260Z,10.95
2022-09-11T21:14:20.807Z,11.30
2022-09-11T21:16:51.500Z,13.15
2022-09-11T21:19:19.276Z,11.80
2022-09-11T21:24:50.735Z,12.40
2022-09-11T21:27:42.746Z,14.63
2022-09-11T21:30:19.375Z,13.98
2022-09-11T21:32:50.829Z,12.25
2022-09-11T21:35:36.480Z,12.15
2022-09-11T21:38:09.151Z,14.95
2022-09-11T21:40:40.991Z,11.93
2022-09-11T21:43:44.693Z,13.25
2022-09-11T21:46:36.902Z,13.25
2022-09-11T21:49:08.819Z,17.90
2022-09-11T21:54:39.703Z,19.70
2022-09-11T21:57:32.149Z,18.98
2022-09-11T22:00:11.849Z,18.15
2022-09-11T22:02:45.311Z,23.58
2022-09-11T22:05:29.993Z,22.98
2022-09-11T22:10:54.493Z,30.67
2022-09-11T22:13:28.681Z,24.45
2022-09-11T22:16:13.106Z,27.13
2022-09-11T22:18:57.794Z,28.27
2022-09-11T22:21:34.605Z,25.58
2022-09-11T22:27:07.889Z,27.75
2022-09-11T22:29:58.015Z,30.52
2022-09-11T22:32:34.574Z,28.48
2022-09-11T22:35:06.172Z,27.52
2022-09-11T22:37:42.863Z,29.80
2022-09-11T22:40:28.404Z,28.58
2022-09-11T22:42:58.463Z,29.45
2022-09-11T22:45:33.301Z,30.63
2022-09-11T22:48:04.764Z,31.10
2022-09-11T22:50:33.904Z,29.45
2022-09-11T22:53:04.749Z,29.65
2022-09-11T22:55:32.448Z,33.65
2022-09-11T22:58:11.546Z,30.80
2022-09-11T23:00:58.597Z,32.85
2022-09-11T23:03:44.145Z,32.72
2022-09-11T23:06:35.460Z,32.55
2022-09-11T23:09:09.602Z,34.42
2022-09-11T23:11:40.514Z,32.90
2022-09-11T23:14:14.119Z,35.78
2022-09-11T23:16:43.577Z,36.60
2022-09-11T23:19:37.426Z,34.63
2022-09-11T23:22:07.840Z,33.83
2022-09-11T23:24:38.518Z,35.90
2022-09-11T23:27:11.244Z,35.25
2022-09-11T23:29:47.015Z,34.75
2022-09-11T23:32:20.223Z,36.03
2022-09-11T23:35:00.876Z,36.60
2022-09-11T23:37:28.913Z,37.30
2022-09-11T23:40:02.883Z,37.15
2022-09-11T23:42:52.917Z,35.30
2022-09-11T23:45:29.059Z,37.23
2022-09-11T23:48:02.266Z,36.95
2022-09-11T23:50:37.585Z,36.78
2022-09-11T23:53:13.767Z,36.70
2022-09-11T23:55:45.731Z,44.65
2022-09-11T23:58:16.529Z,37.92
